Terminal Aerodrome Forecast
Issued by NWS Wakefield, VA

Home | Current Version | Previous Version | Text Only | Print | Product List | Glossary On
Versions: 1 2 3 4 5 6 7 8 9 10 11 12 13 14 15 16 17 18
000
FTUS41 KAKQ 282300 RRA
TAFSBY
TAF
KSBY 282347Z 0100/0124 02005KT P6SM FEW070 OVC080
     FM011100 VRB03KT P6SM OVC050
     FM011500 10003KT 2SM -SN OVC035
     FM011800 28006KT 2SM -RA BR OVC009
     FM012200 31005KT 1SM -RA BR OVC004=

USA.gov is the U.S. government's official web portal to all federal, state and local government web resources and services.